sensor_id;sensor_type;location;lat;lon;timestamp;P1;durP1;ratioP1;P2;durP2;ratioP2
51927;SDS011;37953;52.806;18.270;2024-01-10T00:01:53;106.70;;;36.07;;
51927;SDS011;37953;52.806;18.270;2024-01-10T00:04:20;112.20;;;37.43;;
51927;SDS011;37953;52.806;18.270;2024-01-10T00:06:45;118.87;;;37.90;;
51927;SDS011;37953;52.806;18.270;2024-01-10T00:09:11;122.87;;;36.30;;
51927;SDS011;37953;52.806;18.270;2024-01-10T00:11:37;113.67;;;36.80;;
51927;SDS011;37953;52.806;18.270;2024-01-10T00:14:04;113.30;;;34.67;;
51927;SDS011;37953;52.806;18.270;2024-01-10T00:16:30;116.33;;;35.10;;
51927;SDS011;37953;52.806;18.270;2024-01-10T00:18:56;109.73;;;33.90;;
51927;SDS011;37953;52.806;18.270;2024-01-10T00:21:22;106.20;;;31.37;;
51927;SDS011;37953;52.806;18.270;2024-01-10T00:23:49;99.47;;;32.37;;
51927;SDS011;37953;52.806;18.270;2024-01-10T00:26:14;88.13;;;31.23;;
51927;SDS011;37953;52.806;18.270;2024-01-10T00:28:42;87.90;;;30.20;;
51927;SDS011;37953;52.806;18.270;2024-01-10T00:31:07;103.90;;;30.07;;
51927;SDS011;37953;52.806;18.270;2024-01-10T00:33:34;113.00;;;31.43;;
51927;SDS011;37953;52.806;18.270;2024-01-10T00:36:00;98.00;;;29.70;;
51927;SDS011;37953;52.806;18.270;2024-01-10T00:38:26;100.03;;;30.03;;
51927;SDS011;37953;52.806;18.270;2024-01-10T00:40:52;98.73;;;28.30;;
51927;SDS011;37953;52.806;18.270;2024-01-10T00:43:18;84.80;;;28.57;;
51927;SDS011;37953;52.806;18.270;2024-01-10T00:45:44;98.50;;;29.57;;
51927;SDS011;37953;52.806;18.270;2024-01-10T00:48:11;83.03;;;26.97;;
51927;SDS011;37953;52.806;18.270;2024-01-10T00:50:36;80.07;;;26.10;;
51927;SDS011;37953;52.806;18.270;2024-01-10T00:53:03;82.77;;;25.93;;
51927;SDS011;37953;52.806;18.270;2024-01-10T00:55:29;75.53;;;24.93;;
51927;SDS011;37953;52.806;18.270;2024-01-10T00:57:55;74.10;;;23.20;;
51927;SDS011;37953;52.806;18.270;2024-01-10T01:00:21;76.30;;;23.50;;
51927;SDS011;37953;52.806;18.270;2024-01-10T01:02:47;76.60;;;21.53;;
51927;SDS011;37953;52.806;18.270;2024-01-10T01:05:12;77.97;;;24.03;;
51927;SDS011;37953;52.806;18.270;2024-01-10T01:07:51;76.00;;;23.10;;
51927;SDS011;37953;52.806;18.270;2024-01-10T01:10:17;83.33;;;23.93;;
51927;SDS011;37953;52.806;18.270;2024-01-10T01:12:43;96.13;;;23.53;;
51927;SDS011;37953;52.806;18.270;2024-01-10T01:15:09;65.73;;;21.77;;
51927;SDS011;37953;52.806;18.270;2024-01-10T01:17:35;70.80;;;21.57;;
51927;SDS011;37953;52.806;18.270;2024-01-10T01:20:01;74.87;;;22.17;;
51927;SDS011;37953;52.806;18.270;2024-01-10T01:22:30;72.50;;;21.80;;
51927;SDS011;37953;52.806;18.270;2024-01-10T01:24:56;76.60;;;23.10;;
51927;SDS011;37953;52.806;18.270;2024-01-10T01:27:25;71.10;;;22.57;;
51927;SDS011;37953;52.806;18.270;2024-01-10T01:29:51;81.30;;;25.27;;
51927;SDS011;37953;52.806;18.270;2024-01-10T01:32:17;77.47;;;23.57;;
51927;SDS011;37953;52.806;18.270;2024-01-10T01:34:43;75.40;;;22.73;;
51927;SDS011;37953;52.806;18.270;2024-01-10T01:37:09;74.23;;;22.73;;
51927;SDS011;37953;52.806;18.270;2024-01-10T01:39:35;75.63;;;23.90;;
51927;SDS011;37953;52.806;18.270;2024-01-10T01:42:01;68.57;;;21.57;;
51927;SDS011;37953;52.806;18.270;2024-01-10T01:44:27;80.63;;;23.27;;
51927;SDS011;37953;52.806;18.270;2024-01-10T01:46:54;75.17;;;23.20;;
51927;SDS011;37953;52.806;18.270;2024-01-10T01:49:20;79.27;;;22.37;;
51927;SDS011;37953;52.806;18.270;2024-01-10T01:51:46;76.07;;;22.00;;
51927;SDS011;37953;52.806;18.270;2024-01-10T01:54:13;69.87;;;20.43;;
51927;SDS011;37953;52.806;18.270;2024-01-10T01:56:39;73.20;;;22.17;;
51927;SDS011;37953;52.806;18.270;2024-01-10T01:59:07;65.40;;;20.17;;
51927;SDS011;37953;52.806;18.270;2024-01-10T02:01:34;58.13;;;20.07;;
51927;SDS011;37953;52.806;18.270;2024-01-10T02:04:01;65.97;;;20.10;;
51927;SDS011;37953;52.806;18.270;2024-01-10T02:06:29;56.10;;;19.50;;
51927;SDS011;37953;52.806;18.270;2024-01-10T02:08:56;63.93;;;19.53;;
51927;SDS011;37953;52.806;18.270;2024-01-10T02:11:23;59.33;;;20.80;;
51927;SDS011;37953;52.806;18.270;2024-01-10T02:13:50;72.23;;;21.27;;
51927;SDS011;37953;52.806;18.270;2024-01-10T02:16:17;55.20;;;19.37;;
51927;SDS011;37953;52.806;18.270;2024-01-10T02:18:43;58.70;;;18.93;;
51927;SDS011;37953;52.806;18.270;2024-01-10T02:21:13;54.67;;;19.03;;
51927;SDS011;37953;52.806;18.270;2024-01-10T02:23:38;59.37;;;18.27;;
51927;SDS011;37953;52.806;18.270;2024-01-10T02:26:05;55.37;;;19.13;;
51927;SDS011;37953;52.806;18.270;2024-01-10T02:28:32;53.43;;;17.87;;
51927;SDS011;37953;52.806;18.270;2024-01-10T02:30:58;62.47;;;20.43;;
51927;SDS011;37953;52.806;18.270;2024-01-10T02:33:25;79.90;;;20.90;;
51927;SDS011;37953;52.806;18.270;2024-01-10T02:35:51;57.27;;;18.83;;
51927;SDS011;37953;52.806;18.270;2024-01-10T02:38:17;52.23;;;17.83;;
51927;SDS011;37953;52.806;18.270;2024-01-10T02:40:46;57.70;;;18.03;;
51927;SDS011;37953;52.806;18.270;2024-01-10T02:43:12;48.87;;;17.80;;
51927;SDS011;37953;52.806;18.270;2024-01-10T02:45:38;68.17;;;20.37;;
51927;SDS011;37953;52.806;18.270;2024-01-10T02:48:04;62.50;;;19.03;;
51927;SDS011;37953;52.806;18.270;2024-01-10T02:50:31;50.80;;;17.63;;
51927;SDS011;37953;52.806;18.270;2024-01-10T02:52:57;56.97;;;17.30;;
51927;SDS011;37953;52.806;18.270;2024-01-10T02:55:23;47.10;;;15.57;;
51927;SDS011;37953;52.806;18.270;2024-01-10T02:57:49;52.90;;;16.50;;
51927;SDS011;37953;52.806;18.270;2024-01-10T03:00:15;53.20;;;16.73;;
51927;SDS011;37953;52.806;18.270;2024-01-10T03:02:54;48.43;;;16.13;;
51927;SDS011;37953;52.806;18.270;2024-01-10T03:05:20;49.00;;;15.80;;
51927;SDS011;37953;52.806;18.270;2024-01-10T03:07:46;50.77;;;15.80;;
51927;SDS011;37953;52.806;18.270;2024-01-10T03:10:12;55.73;;;17.07;;
51927;SDS011;37953;52.806;18.270;2024-01-10T03:12:38;153.17;;;18.70;;
51927;SDS011;37953;52.806;18.270;2024-01-10T03:15:05;47.07;;;16.30;;
51927;SDS011;37953;52.806;18.270;2024-01-10T03:17:31;44.17;;;15.27;;
51927;SDS011;37953;52.806;18.270;2024-01-10T03:19:59;49.33;;;15.60;;
51927;SDS011;37953;52.806;18.270;2024-01-10T03:22:25;47.33;;;16.07;;
51927;SDS011;37953;52.806;18.270;2024-01-10T03:24:54;50.73;;;15.03;;
51927;SDS011;37953;52.806;18.270;2024-01-10T03:27:20;48.30;;;15.43;;
51927;SDS011;37953;52.806;18.270;2024-01-10T03:29:46;44.17;;;15.57;;
51927;SDS011;37953;52.806;18.270;2024-01-10T03:32:12;49.70;;;17.27;;
51927;SDS011;37953;52.806;18.270;2024-01-10T03:34:39;55.80;;;17.93;;
51927;SDS011;37953;52.806;18.270;2024-01-10T03:37:06;52.23;;;17.80;;
51927;SDS011;37953;52.806;18.270;2024-01-10T03:39:33;56.53;;;18.90;;
51927;SDS011;37953;52.806;18.270;2024-01-10T03:41:58;57.43;;;18.73;;
51927;SDS011;37953;52.806;18.270;2024-01-10T03:44:26;62.17;;;20.13;;
51927;SDS011;37953;52.806;18.270;2024-01-10T03:46:52;61.10;;;20.40;;
51927;SDS011;37953;52.806;18.270;2024-01-10T03:49:18;64.07;;;20.30;;
51927;SDS011;37953;52.806;18.270;2024-01-10T03:51:44;68.23;;;21.57;;
51927;SDS011;37953;52.806;18.270;2024-01-10T03:54:10;65.27;;;21.30;;
51927;SDS011;37953;52.806;18.270;2024-01-10T03:56:36;67.10;;;22.47;;
51927;SDS011;37953;52.806;18.270;2024-01-10T03:59:02;62.30;;;22.43;;
51927;SDS011;37953;52.806;18.270;2024-01-10T04:01:28;66.27;;;22.90;;
51927;SDS011;37953;52.806;18.270;2024-01-10T04:03:54;66.93;;;23.30;;
51927;SDS011;37953;52.806;18.270;2024-01-10T04:06:20;68.07;;;23.33;;
51927;SDS011;37953;52.806;18.270;2024-01-10T04:08:46;74.27;;;24.13;;
51927;SDS011;37953;52.806;18.270;2024-01-10T04:11:12;79.47;;;24.43;;
51927;SDS011;37953;52.806;18.270;2024-01-10T04:13:38;72.10;;;24.70;;
51927;SDS011;37953;52.806;18.270;2024-01-10T04:16:04;69.03;;;22.70;;
51927;SDS011;37953;52.806;18.270;2024-01-10T04:18:31;72.40;;;22.13;;
51927;SDS011;37953;52.806;18.270;2024-01-10T04:20:56;74.50;;;24.63;;
51927;SDS011;37953;52.806;18.270;2024-01-10T04:23:22;74.83;;;23.80;;
51927;SDS011;37953;52.806;18.270;2024-01-10T04:25:48;71.43;;;22.23;;
51927;SDS011;37953;52.806;18.270;2024-01-10T04:28:14;62.03;;;20.53;;
51927;SDS011;37953;52.806;18.270;2024-01-10T04:30:40;61.73;;;22.23;;
51927;SDS011;37953;52.806;18.270;2024-01-10T04:33:06;71.90;;;23.60;;
51927;SDS011;37953;52.806;18.270;2024-01-10T04:35:32;75.40;;;22.70;;
51927;SDS011;37953;52.806;18.270;2024-01-10T04:37:58;63.10;;;22.80;;
51927;SDS011;37953;52.806;18.270;2024-01-10T04:40:24;69.10;;;22.40;;
51927;SDS011;37953;52.806;18.270;2024-01-10T04:42:50;244.93;;;26.97;;
51927;SDS011;37953;52.806;18.270;2024-01-10T04:45:16;67.20;;;22.53;;
51927;SDS011;37953;52.806;18.270;2024-01-10T04:47:43;65.33;;;21.53;;
51927;SDS011;37953;52.806;18.270;2024-01-10T04:50:10;84.17;;;21.00;;
51927;SDS011;37953;52.806;18.270;2024-01-10T04:52:36;60.80;;;19.40;;
51927;SDS011;37953;52.806;18.270;2024-01-10T04:55:02;64.30;;;19.90;;
51927;SDS011;37953;52.806;18.270;2024-01-10T04:57:35;59.67;;;17.80;;
51927;SDS011;37953;52.806;18.270;2024-01-10T05:00:01;62.23;;;18.97;;
51927;SDS011;37953;52.806;18.270;2024-01-10T05:02:29;55.37;;;18.73;;
51927;SDS011;37953;52.806;18.270;2024-01-10T05:04:55;61.77;;;19.30;;
51927;SDS011;37953;52.806;18.270;2024-01-10T05:07:21;52.57;;;18.27;;
51927;SDS011;37953;52.806;18.270;2024-01-10T05:09:47;57.77;;;19.07;;
51927;SDS011;37953;52.806;18.270;2024-01-10T05:12:13;57.47;;;18.73;;
51927;SDS011;37953;52.806;18.270;2024-01-10T05:14:39;63.83;;;20.37;;
51927;SDS011;37953;52.806;18.270;2024-01-10T05:17:05;71.90;;;22.27;;
51927;SDS011;37953;52.806;18.270;2024-01-10T05:19:31;81.33;;;24.77;;
51927;SDS011;37953;52.806;18.270;2024-01-10T05:21:57;80.27;;;23.67;;
51927;SDS011;37953;52.806;18.270;2024-01-10T05:24:23;68.75;;;22.48;;
51927;SDS011;37953;52.806;18.270;2024-01-10T05:26:50;59.87;;;20.60;;
51927;SDS011;37953;52.806;18.270;2024-01-10T05:29:16;66.53;;;22.03;;
51927;SDS011;37953;52.806;18.270;2024-01-10T05:31:54;57.13;;;20.40;;
51927;SDS011;37953;52.806;18.270;2024-01-10T05:34:20;67.20;;;20.03;;
51927;SDS011;37953;52.806;18.270;2024-01-10T05:36:46;62.13;;;19.27;;
51927;SDS011;37953;52.806;18.270;2024-01-10T05:39:12;61.50;;;18.83;;
51927;SDS011;37953;52.806;18.270;2024-01-10T05:41:41;48.93;;;16.13;;
51927;SDS011;37953;52.806;18.270;2024-01-10T05:44:09;51.13;;;16.37;;
51927;SDS011;37953;52.806;18.270;2024-01-10T05:46:41;41.00;;;15.20;;
51927;SDS011;37953;52.806;18.270;2024-01-10T05:49:08;58.07;;;16.87;;
51927;SDS011;37953;52.806;18.270;2024-01-10T05:51:34;53.77;;;17.63;;
51927;SDS011;37953;52.806;18.270;2024-01-10T05:54:00;59.73;;;18.97;;
51927;SDS011;37953;52.806;18.270;2024-01-10T05:56:26;53.20;;;18.30;;
51927;SDS011;37953;52.806;18.270;2024-01-10T05:58:52;55.93;;;16.77;;
51927;SDS011;37953;52.806;18.270;2024-01-10T06:01:18;41.30;;;14.70;;
51927;SDS011;37953;52.806;18.270;2024-01-10T06:03:44;49.63;;;14.77;;
51927;SDS011;37953;52.806;18.270;2024-01-10T06:06:10;46.33;;;16.53;;
51927;SDS011;37953;52.806;18.270;2024-01-10T06:08:36;47.60;;;15.43;;
51927;SDS011;37953;52.806;18.270;2024-01-10T06:11:03;53.17;;;16.30;;
51927;SDS011;37953;52.806;18.270;2024-01-10T06:13:36;41.17;;;15.53;;
51927;SDS011;37953;52.806;18.270;2024-01-10T06:16:08;42.80;;;16.57;;
51927;SDS011;37953;52.806;18.270;2024-01-10T06:18:34;45.20;;;15.67;;
51927;SDS011;37953;52.806;18.270;2024-01-10T06:21:00;39.70;;;14.57;;
51927;SDS011;37953;52.806;18.270;2024-01-10T06:23:27;51.47;;;16.17;;
51927;SDS011;37953;52.806;18.270;2024-01-10T06:25:53;50.87;;;15.63;;
51927;SDS011;37953;52.806;18.270;2024-01-10T06:28:20;94.27;;;32.90;;
51927;SDS011;37953;52.806;18.270;2024-01-10T06:30:47;254.80;;;84.53;;
51927;SDS011;37953;52.806;18.270;2024-01-10T06:33:13;421.60;;;133.37;;
51927;SDS011;37953;52.806;18.270;2024-01-10T06:35:39;345.93;;;105.47;;
51927;SDS011;37953;52.806;18.270;2024-01-10T06:38:05;328.97;;;104.67;;
51927;SDS011;37953;52.806;18.270;2024-01-10T06:40:31;293.80;;;96.33;;
51927;SDS011;37953;52.806;18.270;2024-01-10T06:43:10;258.77;;;82.63;;
51927;SDS011;37953;52.806;18.270;2024-01-10T06:45:37;170.43;;;52.67;;
51927;SDS011;37953;52.806;18.270;2024-01-10T06:48:03;172.20;;;47.73;;
51927;SDS011;37953;52.806;18.270;2024-01-10T06:50:30;206.63;;;52.80;;
51927;SDS011;37953;52.806;18.270;2024-01-10T06:52:56;339.03;;;86.00;;
51927;SDS011;37953;52.806;18.270;2024-01-10T06:55:22;306.40;;;83.00;;
51927;SDS011;37953;52.806;18.270;2024-01-10T06:57:54;382.10;;;101.30;;
51927;SDS011;37953;52.806;18.270;2024-01-10T07:00:21;301.70;;;85.43;;
51927;SDS011;37953;52.806;18.270;2024-01-10T07:02:47;256.55;;;68.78;;
51927;SDS011;37953;52.806;18.270;2024-01-10T07:05:14;310.80;;;78.32;;
51927;SDS011;37953;52.806;18.270;2024-01-10T07:07:41;333.93;;;89.20;;
51927;SDS011;37953;52.806;18.270;2024-01-10T07:10:07;255.47;;;69.63;;
51927;SDS011;37953;52.806;18.270;2024-01-10T07:12:34;166.73;;;49.80;;
51927;SDS011;37953;52.806;18.270;2024-01-10T07:15:00;170.10;;;48.80;;
51927;SDS011;37953;52.806;18.270;2024-01-10T07:17:32;136.20;;;41.10;;
51927;SDS011;37953;52.806;18.270;2024-01-10T07:20:01;160.52;;;51.85;;
51927;SDS011;37953;52.806;18.270;2024-01-10T07:22:28;108.17;;;41.33;;
51927;SDS011;37953;52.806;18.270;2024-01-10T07:24:54;114.38;;;39.28;;
51927;SDS011;37953;52.806;18.270;2024-01-10T07:27:20;101.22;;;34.33;;
51927;SDS011;37953;52.806;18.270;2024-01-10T07:29:46;115.50;;;35.47;;
51927;SDS011;37953;52.806;18.270;2024-01-10T07:32:12;64.35;;;24.48;;
51927;SDS011;37953;52.806;18.270;2024-01-10T07:34:38;59.00;;;23.03;;
51927;SDS011;37953;52.806;18.270;2024-01-10T07:37:04;68.53;;;23.87;;
51927;SDS011;37953;52.806;18.270;2024-01-10T07:39:31;60.10;;;21.43;;
51927;SDS011;37953;52.806;18.270;2024-01-10T07:41:57;60.97;;;21.00;;
51927;SDS011;37953;52.806;18.270;2024-01-10T07:44:23;57.57;;;20.27;;
51927;SDS011;37953;52.806;18.270;2024-01-10T07:46:50;46.90;;;17.60;;
51927;SDS011;37953;52.806;18.270;2024-01-10T07:49:20;45.00;;;16.87;;
51927;SDS011;37953;52.806;18.270;2024-01-10T07:51:47;47.40;;;15.80;;
51927;SDS011;37953;52.806;18.270;2024-01-10T07:54:13;46.33;;;16.87;;
51927;SDS011;37953;52.806;18.270;2024-01-10T07:56:39;45.50;;;16.23;;
51927;SDS011;37953;52.806;18.270;2024-01-10T07:59:05;45.95;;;16.17;;
51927;SDS011;37953;52.806;18.270;2024-01-10T08:01:31;38.72;;;14.18;;
51927;SDS011;37953;52.806;18.270;2024-01-10T08:03:58;41.22;;;15.48;;
51927;SDS011;37953;52.806;18.270;2024-01-10T08:06:24;42.05;;;15.23;;
51927;SDS011;37953;52.806;18.270;2024-01-10T08:08:50;35.65;;;14.30;;
51927;SDS011;37953;52.806;18.270;2024-01-10T08:11:16;36.07;;;14.40;;
51927;SDS011;37953;52.806;18.270;2024-01-10T08:13:42;45.47;;;16.00;;
51927;SDS011;37953;52.806;18.270;2024-01-10T08:16:08;52.33;;;18.43;;
51927;SDS011;37953;52.806;18.270;2024-01-10T08:18:34;76.95;;;23.20;;
51927;SDS011;37953;52.806;18.270;2024-01-10T08:21:00;70.60;;;20.48;;
51927;SDS011;37953;52.806;18.270;2024-01-10T08:23:26;42.33;;;16.52;;
51927;SDS011;37953;52.806;18.270;2024-01-10T08:25:52;38.93;;;15.80;;
51927;SDS011;37953;52.806;18.270;2024-01-10T08:28:18;39.00;;;14.82;;
51927;SDS011;37953;52.806;18.270;2024-01-10T08:30:44;45.53;;;17.20;;
51927;SDS011;37953;52.806;18.270;2024-01-10T08:33:11;29.42;;;12.75;;
51927;SDS011;37953;52.806;18.270;2024-01-10T08:35:37;38.85;;;15.45;;
51927;SDS011;37953;52.806;18.270;2024-01-10T08:38:04;41.17;;;14.88;;
51927;SDS011;37953;52.806;18.270;2024-01-10T08:40:36;43.67;;;15.27;;
51927;SDS011;37953;52.806;18.270;2024-01-10T08:43:09;187.82;;;18.17;;
51927;SDS011;37953;52.806;18.270;2024-01-10T08:45:35;34.97;;;12.85;;
51927;SDS011;37953;52.806;18.270;2024-01-10T08:48:01;35.90;;;13.60;;
51927;SDS011;37953;52.806;18.270;2024-01-10T08:50:27;29.98;;;12.70;;
51927;SDS011;37953;52.806;18.270;2024-01-10T08:52:53;32.13;;;12.27;;
51927;SDS011;37953;52.806;18.270;2024-01-10T08:55:19;34.83;;;13.95;;
51927;SDS011;37953;52.806;18.270;2024-01-10T08:57:46;33.60;;;12.70;;
51927;SDS011;37953;52.806;18.270;2024-01-10T09:00:14;35.45;;;14.73;;
51927;SDS011;37953;52.806;18.270;2024-01-10T09:02:47;37.10;;;12.70;;
51927;SDS011;37953;52.806;18.270;2024-01-10T09:05:13;40.67;;;14.50;;
51927;SDS011;37953;52.806;18.270;2024-01-10T09:07:39;37.03;;;15.90;;
51927;SDS011;37953;52.806;18.270;2024-01-10T09:10:05;46.25;;;17.52;;
51927;SDS011;37953;52.806;18.270;2024-01-10T09:12:33;46.03;;;17.30;;
51927;SDS011;37953;52.806;18.270;2024-01-10T09:15:00;38.13;;;15.88;;
51927;SDS011;37953;52.806;18.270;2024-01-10T09:17:26;39.85;;;15.20;;
51927;SDS011;37953;52.806;18.270;2024-01-10T09:19:56;38.50;;;14.40;;
51927;SDS011;37953;52.806;18.270;2024-01-10T09:22:23;35.92;;;15.32;;
51927;SDS011;37953;52.806;18.270;2024-01-10T09:24:49;36.25;;;13.88;;
51927;SDS011;37953;52.806;18.270;2024-01-10T09:27:15;32.58;;;12.77;;
51927;SDS011;37953;52.806;18.270;2024-01-10T09:29:41;39.20;;;14.38;;
51927;SDS011;37953;52.806;18.270;2024-01-10T09:32:07;30.40;;;13.43;;
51927;SDS011;37953;52.806;18.270;2024-01-10T09:34:33;29.50;;;12.60;;
51927;SDS011;37953;52.806;18.270;2024-01-10T09:36:59;37.05;;;15.07;;
51927;SDS011;37953;52.806;18.270;2024-01-10T09:39:25;35.00;;;14.02;;
51927;SDS011;37953;52.806;18.270;2024-01-10T09:41:51;36.35;;;14.23;;
51927;SDS011;37953;52.806;18.270;2024-01-10T09:44:17;27.30;;;11.30;;
51927;SDS011;37953;52.806;18.270;2024-01-10T09:46:53;31.88;;;12.13;;
51927;SDS011;37953;52.806;18.270;2024-01-10T09:49:20;28.38;;;12.25;;
51927;SDS011;37953;52.806;18.270;2024-01-10T09:52:03;31.45;;;12.40;;
51927;SDS011;37953;52.806;18.270;2024-01-10T09:54:30;33.35;;;12.75;;
51927;SDS011;37953;52.806;18.270;2024-01-10T09:56:57;35.35;;;11.77;;
51927;SDS011;37953;52.806;18.270;2024-01-10T09:59:23;32.42;;;12.20;;
51927;SDS011;37953;52.806;18.270;2024-01-10T10:01:50;34.35;;;13.15;;
51927;SDS011;37953;52.806;18.270;2024-01-10T10:04:17;31.70;;;13.32;;
51927;SDS011;37953;52.806;18.270;2024-01-10T10:06:45;37.75;;;14.82;;
51927;SDS011;37953;52.806;18.270;2024-01-10T10:09:11;37.45;;;14.50;;
51927;SDS011;37953;52.806;18.270;2024-01-10T10:11:38;35.70;;;14.55;;
51927;SDS011;37953;52.806;18.270;2024-01-10T10:14:15;40.50;;;14.48;;
51927;SDS011;37953;52.806;18.270;2024-01-10T10:16:48;41.05;;;14.27;;
51927;SDS011;37953;52.806;18.270;2024-01-10T10:19:21;39.00;;;14.77;;
51927;SDS011;37953;52.806;18.270;2024-01-10T10:21:59;37.85;;;14.07;;
51927;SDS011;37953;52.806;18.270;2024-01-10T10:24:41;56.65;;;15.27;;
51927;SDS011;37953;52.806;18.270;2024-01-10T10:27:11;38.67;;;14.88;;
51927;SDS011;37953;52.806;18.270;2024-01-10T10:29:38;48.83;;;14.50;;
51927;SDS011;37953;52.806;18.270;2024-01-10T10:32:05;33.90;;;13.43;;
51927;SDS011;37953;52.806;18.270;2024-01-10T10:34:32;33.70;;;13.63;;
51927;SDS011;37953;52.806;18.270;2024-01-10T10:36:58;41.00;;;14.90;;
51927;SDS011;37953;52.806;18.270;2024-01-10T10:39:24;37.45;;;14.68;;
51927;SDS011;37953;52.806;18.270;2024-01-10T10:41:51;42.05;;;15.32;;
51927;SDS011;37953;52.806;18.270;2024-01-10T10:44:21;41.53;;;15.73;;
51927;SDS011;37953;52.806;18.270;2024-01-10T10:46:51;44.30;;;16.98;;
51927;SDS011;37953;52.806;18.270;2024-01-10T10:49:21;42.92;;;16.13;;
51927;SDS011;37953;52.806;18.270;2024-01-10T10:51:54;42.65;;;15.77;;
51927;SDS011;37953;52.806;18.270;2024-01-10T10:54:23;43.20;;;16.10;;
51927;SDS011;37953;52.806;18.270;2024-01-10T10:56:55;40.00;;;15.65;;
51927;SDS011;37953;52.806;18.270;2024-01-10T10:59:23;46.65;;;17.75;;
51927;SDS011;37953;52.806;18.270;2024-01-10T11:01:52;47.22;;;18.95;;
51927;SDS011;37953;52.806;18.270;2024-01-10T11:04:20;49.90;;;18.25;;
51927;SDS011;37953;52.806;18.270;2024-01-10T11:06:50;43.97;;;17.10;;
51927;SDS011;37953;52.806;18.270;2024-01-10T11:09:16;51.75;;;19.65;;
51927;SDS011;37953;52.806;18.270;2024-01-10T11:20:12;53.45;;;19.98;;
51927;SDS011;37953;52.806;18.270;2024-01-10T11:25:35;55.75;;;20.05;;
51927;SDS011;37953;52.806;18.270;2024-01-10T11:28:05;45.80;;;18.70;;
51927;SDS011;37953;52.806;18.270;2024-01-10T11:30:34;56.10;;;19.85;;
51927;SDS011;37953;52.806;18.270;2024-01-10T11:38:43;57.03;;;19.50;;
51927;SDS011;37953;52.806;18.270;2024-01-10T11:41:20;56.13;;;19.58;;
51927;SDS011;37953;52.806;18.270;2024-01-10T11:49:18;72.75;;;25.58;;
51927;SDS011;37953;52.806;18.270;2024-01-10T11:51:46;70.00;;;25.02;;
51927;SDS011;37953;52.806;18.270;2024-01-10T11:59:43;227.65;;;54.70;;
51927;SDS011;37953;52.806;18.270;2024-01-10T12:02:16;218.82;;;52.25;;
51927;SDS011;37953;52.806;18.270;2024-01-10T12:04:43;125.00;;;34.63;;
51927;SDS011;37953;52.806;18.270;2024-01-10T12:07:11;166.35;;;47.83;;
51927;SDS011;37953;52.806;18.270;2024-01-10T12:09:38;142.27;;;44.75;;
51927;SDS011;37953;52.806;18.270;2024-01-10T12:12:07;129.02;;;40.28;;
51927;SDS011;37953;52.806;18.270;2024-01-10T12:14:33;125.50;;;42.45;;
51927;SDS011;37953;52.806;18.270;2024-01-10T12:17:00;139.90;;;44.47;;
51927;SDS011;37953;52.806;18.270;2024-01-10T12:19:27;161.50;;;51.30;;
51927;SDS011;37953;52.806;18.270;2024-01-10T12:21:53;132.82;;;45.65;;
51927;SDS011;37953;52.806;18.270;2024-01-10T12:24:22;137.43;;;44.33;;
51927;SDS011;37953;52.806;18.270;2024-01-10T12:32:11;120.22;;;41.17;;
51927;SDS011;37953;52.806;18.270;2024-01-10T12:34:38;131.88;;;42.85;;
51927;SDS011;37953;52.806;18.270;2024-01-10T12:37:05;123.50;;;39.97;;
51927;SDS011;37953;52.806;18.270;2024-01-10T12:39:32;149.25;;;45.85;;
51927;SDS011;37953;52.806;18.270;2024-01-10T12:41:58;136.88;;;42.90;;
51927;SDS011;37953;52.806;18.270;2024-01-10T12:44:27;148.13;;;44.50;;
51927;SDS011;37953;52.806;18.270;2024-01-10T12:46:54;115.95;;;39.38;;
51927;SDS011;37953;52.806;18.270;2024-01-10T12:49:21;130.13;;;41.42;;
51927;SDS011;37953;52.806;18.270;2024-01-10T12:51:48;115.78;;;38.22;;
51927;SDS011;37953;52.806;18.270;2024-01-10T12:54:15;100.20;;;36.30;;
51927;SDS011;37953;52.806;18.270;2024-01-10T12:56:42;96.60;;;33.85;;
51927;SDS011;37953;52.806;18.270;2024-01-10T12:59:08;80.30;;;29.65;;
51927;SDS011;37953;52.806;18.270;2024-01-10T13:01:40;87.30;;;32.10;;
51927;SDS011;37953;52.806;18.270;2024-01-10T13:04:07;65.32;;;24.67;;
51927;SDS011;37953;52.806;18.270;2024-01-10T13:06:33;69.43;;;25.90;;
51927;SDS011;37953;52.806;18.270;2024-01-10T13:08:59;83.53;;;31.35;;
51927;SDS011;37953;52.806;18.270;2024-01-10T13:11:25;69.22;;;27.02;;
51927;SDS011;37953;52.806;18.270;2024-01-10T13:13:51;237.30;;;31.63;;
51927;SDS011;37953;52.806;18.270;2024-01-10T13:16:17;63.65;;;25.25;;
51927;SDS011;37953;52.806;18.270;2024-01-10T13:18:43;79.47;;;31.83;;
51927;SDS011;37953;52.806;18.270;2024-01-10T13:21:09;85.53;;;34.45;;
51927;SDS011;37953;52.806;18.270;2024-01-10T13:23:36;61.17;;;25.20;;
51927;SDS011;37953;52.806;18.270;2024-01-10T13:26:02;76.35;;;30.95;;
51927;SDS011;37953;52.806;18.270;2024-01-10T13:28:28;74.22;;;30.77;;
51927;SDS011;37953;52.806;18.270;2024-01-10T13:30:55;77.20;;;30.10;;
51927;SDS011;37953;52.806;18.270;2024-01-10T13:33:23;63.40;;;26.55;;
51927;SDS011;37953;52.806;18.270;2024-01-10T13:35:51;64.78;;;21.90;;
51927;SDS011;37953;52.806;18.270;2024-01-10T13:38:17;60.05;;;22.02;;
51927;SDS011;37953;52.806;18.270;2024-01-10T13:40:43;61.20;;;24.10;;
51927;SDS011;37953;52.806;18.270;2024-01-10T13:43:09;59.72;;;22.77;;
51927;SDS011;37953;52.806;18.270;2024-01-10T13:45:35;71.55;;;27.58;;
51927;SDS011;37953;52.806;18.270;2024-01-10T13:48:01;76.63;;;24.70;;
51927;SDS011;37953;52.806;18.270;2024-01-10T13:50:27;74.18;;;29.33;;
51927;SDS011;37953;52.806;18.270;2024-01-10T13:52:55;65.07;;;22.55;;
51927;SDS011;37953;52.806;18.270;2024-01-10T13:55:22;74.95;;;26.90;;
51927;SDS011;37953;52.806;18.270;2024-01-10T13:57:49;64.70;;;24.42;;
51927;SDS011;37953;52.806;18.270;2024-01-10T14:00:16;67.15;;;23.65;;
51927;SDS011;37953;52.806;18.270;2024-01-10T14:02:42;67.28;;;22.63;;
51927;SDS011;37953;52.806;18.270;2024-01-10T14:05:08;65.78;;;21.98;;
51927;SDS011;37953;52.806;18.270;2024-01-10T14:07:36;55.92;;;22.17;;
51927;SDS011;37953;52.806;18.270;2024-01-10T14:10:02;49.95;;;19.17;;
51927;SDS011;37953;52.806;18.270;2024-01-10T14:12:28;63.45;;;25.42;;
51927;SDS011;37953;52.806;18.270;2024-01-10T14:14:57;69.32;;;25.92;;
51927;SDS011;37953;52.806;18.270;2024-01-10T14:17:25;66.30;;;24.38;;
51927;SDS011;37953;52.806;18.270;2024-01-10T14:19:51;64.65;;;23.83;;
51927;SDS011;37953;52.806;18.270;2024-01-10T14:22:18;90.45;;;31.13;;
51927;SDS011;37953;52.806;18.270;2024-01-10T14:24:44;85.78;;;29.80;;
51927;SDS011;37953;52.806;18.270;2024-01-10T14:27:16;81.60;;;28.73;;
51927;SDS011;37953;52.806;18.270;2024-01-10T14:29:42;90.57;;;30.50;;
51927;SDS011;37953;52.806;18.270;2024-01-10T14:32:09;79.38;;;30.20;;
51927;SDS011;37953;52.806;18.270;2024-01-10T14:34:38;100.82;;;29.67;;
51927;SDS011;37953;52.806;18.270;2024-01-10T14:37:05;81.03;;;28.40;;
51927;SDS011;37953;52.806;18.270;2024-01-10T14:39:33;93.32;;;30.35;;